Time;durP1;ratioP1;P1;durP2;ratioP2;P2;SDS_P1;SDS_P2;PMS_P1;PMS_P2;Temp;Humidity;BMP_temperature;BMP_pressure;BME280_temperature;BME280_humidity;BME280_pressure;Samples;Min_cycle;Max_cycle;Signal;HPM_P1;HPM_P2
2022/09/24 00:02:26;;;;;;;0.60;0.53;;;14.50;99.90;;;;;;5072305;28;20432;-75
2022/09/24 00:04:54;;;;;;;0.50;0.40;;;14.40;99.90;;;;;;5071938;28;20825;-76
2022/09/24 00:07:21;;;;;;;0.50;0.40;;;14.50;99.90;;;;;;5072243;28;20440;-75
2022/09/24 00:09:48;;;;;;;0.50;0.40;;;14.40;99.90;;;;;;5071512;28;20535;-75
2022/09/24 00:12:16;;;;;;;0.50;0.40;;;14.50;99.90;;;;;;5071540;28;20531;-76
2022/09/24 00:14:42;;;;;;;0.50;0.40;;;14.50;99.90;;;;;;5071829;28;20996;-75
2022/09/24 00:17:09;;;;;;;0.50;0.30;;;14.50;99.90;;;;;;5071812;28;20440;-75
2022/09/24 00:19:36;;;;;;;0.50;0.40;;;14.50;99.90;;;;;;5071818;28;20440;-75
2022/09/24 00:22:04;;;;;;;0.50;0.40;;;14.40;99.90;;;;;;5071526;28;20432;-74
2022/09/24 00:27:15;;;;;;;0.50;0.40;;;14.40;99.90;;;;;;5071682;28;20411;-75
2022/09/24 00:29:42;;;;;;;0.50;0.40;;;14.30;99.90;;;;;;5071890;28;21001;-75
2022/09/24 00:32:09;;;;;;;0.50;0.40;;;14.20;99.90;;;;;;5071507;28;20476;-75
2022/09/24 00:34:36;;;;;;;0.50;0.40;;;14.20;99.90;;;;;;5071601;28;20539;-75
2022/09/24 00:37:04;;;;;;;0.50;0.40;;;14.20;99.90;;;;;;5071071;28;20519;-76
2022/09/24 00:39:31;;;;;;;0.50;0.40;;;14.20;99.90;;;;;;5071792;28;20444;-75
2022/09/24 00:41:58;;;;;;;0.50;0.40;;;14.20;99.90;;;;;;5071042;28;20523;-75
2022/09/24 00:44:47;;;;;;;0.50;0.40;;;14.20;99.90;;;;;;5071320;28;20460;-75
2022/09/24 00:47:19;;;;;;;0.50;0.40;;;14.20;99.90;;;;;;5071131;28;20436;-74
2022/09/24 00:49:49;;;;;;;0.50;0.40;;;14.30;99.90;;;;;;5071227;28;20519;-76
2022/09/24 00:52:19;;;;;;;0.50;0.40;;;14.30;99.90;;;;;;5071543;28;20480;-75
2022/09/24 00:54:46;;;;;;;0.50;0.40;;;14.20;99.90;;;;;;5070854;28;20544;-76
2022/09/24 00:57:14;;;;;;;0.50;0.40;;;14.20;99.90;;;;;;5071241;28;20446;-75
2022/09/24 00:59:41;;;;;;;0.50;0.40;;;14.20;99.90;;;;;;5071759;28;20432;-71
2022/09/24 01:02:08;;;;;;;0.50;0.40;;;14.20;99.90;;;;;;5071201;28;20519;-76
2022/09/24 01:04:35;;;;;;;0.50;0.40;;;14.20;99.90;;;;;;5071055;28;20458;-73
2022/09/24 01:07:02;;;;;;;0.50;0.40;;;14.20;99.90;;;;;;5071256;28;20539;-75
2022/09/24 01:09:30;;;;;;;0.57;0.57;;;14.20;99.90;;;;;;5071537;28;20440;-76
2022/09/24 01:12:17;;;;;;;0.50;0.40;;;14.20;99.90;;;;;;5070954;28;21011;-75
2022/09/24 01:14:57;;;;;;;0.50;0.40;;;14.20;99.90;;;;;;5070664;28;20468;-75
2022/09/24 01:17:35;;;;;;;0.50;0.40;;;14.10;99.90;;;;;;5071132;28;20891;-75
2022/09/24 01:20:40;;;;;;;0.50;0.40;;;14.00;99.90;;;;;;5071065;28;20428;-76
2022/09/24 01:23:30;;;;;;;0.50;0.40;;;13.90;99.90;;;;;;5070906;28;20495;-76
2022/09/24 01:26:17;;;;;;;0.50;0.40;;;13.90;99.90;;;;;;5070315;28;20440;-75
2022/09/24 01:29:01;;;;;;;0.50;0.40;;;14.00;99.90;;;;;;5071312;28;20444;-75
2022/09/24 01:31:36;;;;;;;2.67;2.50;;;14.00;99.90;;;;;;5070980;28;20560;-76
2022/09/24 01:34:05;;;;;;;0.67;0.67;;;14.00;99.90;;;;;;5070610;28;20462;-75
2022/09/24 01:36:34;;;;;;;0.50;0.40;;;14.10;99.90;;;;;;5070781;28;20513;-76
2022/09/24 01:39:03;;;;;;;0.50;0.40;;;14.10;99.90;;;;;;5070888;28;20432;-75
2022/09/24 01:41:33;;;;;;;0.50;0.40;;;14.20;99.90;;;;;;5070878;28;20515;-75
2022/09/24 01:44:04;;;;;;;0.50;0.40;;;14.10;99.90;;;;;;5071239;28;20510;-75
2022/09/24 01:46:32;;;;;;;0.50;0.40;;;14.10;99.90;;;;;;5074738;28;20486;-75
2022/09/24 01:48:59;;;;;;;0.50;0.40;;;14.10;99.90;;;;;;5074245;28;20447;-76
2022/09/24 01:51:30;;;;;;;0.50;0.40;;;14.20;99.90;;;;;;5074580;28;20558;-75
2022/09/24 01:54:02;;;;;;;0.50;0.40;;;14.10;99.90;;;;;;5074244;28;20464;-75
2022/09/24 01:56:34;;;;;;;0.50;0.37;;;14.10;99.90;;;;;;5074412;28;20500;-75
2022/09/24 01:59:05;;;;;;;0.50;0.40;;;14.20;99.90;;;;;;5074364;28;20443;-76
2022/09/24 02:01:40;;;;;;;0.50;0.40;;;14.20;99.90;;;;;;5074915;28;20926;-75
2022/09/24 02:04:12;;;;;;;0.50;0.40;;;14.20;99.90;;;;;;5074206;28;20765;-76
2022/09/24 02:06:45;;;;;;;0.50;0.40;;;14.20;99.90;;;;;;5073965;28;20929;-76
2022/09/24 02:09:30;;;;;;;0.50;0.50;;;14.20;99.90;;;;;;5074282;28;20440;-75
2022/09/24 02:12:02;;;;;;;0.50;0.40;;;14.20;99.90;;;;;;5073996;28;20467;-75
2022/09/24 02:14:32;;;;;;;0.50;0.40;;;14.20;99.90;;;;;;5073915;28;20467;-75
2022/09/24 02:17:04;;;;;;;0.50;0.40;;;14.10;99.90;;;;;;5073990;28;20995;-75
2022/09/24 02:19:35;;;;;;;0.50;0.40;;;14.10;99.90;;;;;;5074046;28;20440;-75
2022/09/24 02:22:04;;;;;;;0.50;0.40;;;14.10;99.90;;;;;;5074287;28;20447;-75
2022/09/24 02:24:37;;;;;;;0.50;0.40;;;14.00;99.90;;;;;;5073597;28;20847;-75
2022/09/24 02:27:04;;;;;;;0.50;0.40;;;13.90;99.90;;;;;;5073625;28;20417;-76
2022/09/24 02:29:31;;;;;;;0.50;0.40;;;13.90;99.90;;;;;;5074099;28;20791;-75
2022/09/24 02:32:00;;;;;;;0.50;0.40;;;13.90;99.90;;;;;;5074171;28;20474;-76
2022/09/24 02:34:32;;;;;;;0.57;0.50;;;13.90;99.90;;;;;;5073673;28;20466;-75
2022/09/24 02:37:04;;;;;;;0.50;0.40;;;13.90;99.90;;;;;;5074123;28;20511;-75
2022/09/24 02:39:30;;;;;;;0.50;0.40;;;13.90;99.90;;;;;;5073904;28;20432;-76
2022/09/24 02:41:58;;;;;;;0.73;0.73;;;13.90;99.90;;;;;;5073952;28;20893;-76
2022/09/24 02:44:25;;;;;;;4.20;3.13;;;13.80;99.90;;;;;;5073436;28;20957;-76
2022/09/24 02:46:52;;;;;;;0.50;0.50;;;13.80;99.90;;;;;;5073953;28;20527;-75
2022/09/24 02:49:20;;;;;;;0.70;0.70;;;13.90;99.90;;;;;;5072628;28;20434;-75
2022/09/24 02:51:47;;;;;;;0.50;0.40;;;13.90;99.90;;;;;;5073738;28;20482;-74
2022/09/24 02:54:14;;;;;;;0.50;0.40;;;13.90;99.90;;;;;;5073115;28;21001;-75
2022/09/24 02:56:40;;;;;;;2.07;1.97;;;13.90;99.90;;;;;;5072392;28;20808;-75
2022/09/24 02:59:08;;;;;;;0.50;0.40;;;13.90;99.90;;;;;;5073345;28;20464;-75
2022/09/24 03:01:35;;;;;;;0.50;0.40;;;13.90;99.90;;;;;;5073180;28;20443;-75
2022/09/24 03:04:03;;;;;;;0.50;0.40;;;13.80;99.90;;;;;;5072951;28;20456;-75
2022/09/24 03:06:31;;;;;;;0.50;0.40;;;13.80;99.90;;;;;;5073352;28;20439;-72
2022/09/24 03:08:59;;;;;;;7.40;2.10;;;13.80;99.90;;;;;;5073164;28;20466;-75
2022/09/24 03:11:26;;;;;;;0.50;0.40;;;13.80;99.90;;;;;;5073318;28;20529;-75
2022/09/24 03:13:53;;;;;;;0.50;0.40;;;13.80;99.90;;;;;;5072158;28;20453;-73
2022/09/24 03:16:20;;;;;;;0.67;0.67;;;13.80;99.90;;;;;;5073406;28;20530;-74
2022/09/24 03:18:47;;;;;;;0.50;0.40;;;13.80;99.90;;;;;;5073108;28;20450;-74
2022/09/24 03:21:17;;;;;;;0.50;0.40;;;13.80;99.90;;;;;;5073269;28;20444;-75
2022/09/24 03:23:45;;;;;;;0.50;0.40;;;13.70;99.90;;;;;;5072308;28;20471;-75
2022/09/24 03:26:12;;;;;;;0.50;0.50;;;13.70;99.90;;;;;;5072779;28;20795;-75
2022/09/24 03:28:39;;;;;;;0.60;0.40;;;13.70;99.90;;;;;;5072476;28;20812;-75
2022/09/24 03:31:06;;;;;;;0.50;0.40;;;13.70;99.90;;;;;;5072822;28;20486;-74
2022/09/24 03:33:35;;;;;;;0.50;0.40;;;13.70;99.90;;;;;;5072646;28;20488;-71
2022/09/24 03:36:04;;;;;;;0.50;0.40;;;13.70;99.90;;;;;;5072892;28;20755;-75
2022/09/24 03:38:31;;;;;;;0.53;0.47;;;13.70;99.90;;;;;;5072598;28;20439;-75
2022/09/24 03:41:00;;;;;;;0.93;0.93;;;13.70;99.90;;;;;;5072312;28;20440;-75
2022/09/24 03:43:27;;;;;;;1.43;1.33;;;13.70;99.90;;;;;;5072370;28;20995;-75
2022/09/24 03:45:55;;;;;;;0.50;0.40;;;13.70;99.90;;;;;;5072621;28;20436;-75
2022/09/24 03:48:23;;;;;;;1.37;1.27;;;13.70;99.90;;;;;;5072086;28;20934;-75
2022/09/24 03:50:50;;;;;;;0.53;0.40;;;13.70;99.90;;;;;;5072037;28;20444;-75
2022/09/24 03:53:17;;;;;;;165.90;101.30;;;13.70;99.90;;;;;;5072083;28;20498;-75
2022/09/24 03:55:45;;;;;;;0.60;0.60;;;13.60;99.90;;;;;;5072101;28;20440;-75
2022/09/24 03:58:14;;;;;;;0.50;0.40;;;13.60;99.90;;;;;;5071959;28;20452;-76
2022/09/24 04:00:42;;;;;;;0.50;0.40;;;13.50;99.90;;;;;;5072320;28;20446;-75
2022/09/24 04:03:09;;;;;;;0.50;0.40;;;13.50;99.90;;;;;;5071751;28;20985;-75
2022/09/24 04:05:36;;;;;;;0.50;0.40;;;13.50;99.90;;;;;;5071392;28;20443;-71
2022/09/24 04:08:05;;;;;;;0.50;0.40;;;13.50;99.90;;;;;;5071689;28;20454;-75
2022/09/24 04:10:32;;;;;;;0.50;0.40;;;13.50;99.90;;;;;;5072035;28;20205;-75
2022/09/24 04:12:58;;;;;;;0.50;0.40;;;13.50;99.90;;;;;;5071862;28;20490;-75
2022/09/24 04:15:27;;;;;;;0.50;0.40;;;13.50;99.90;;;;;;5071754;28;20527;-75
2022/09/24 04:17:55;;;;;;;0.50;0.40;;;13.50;99.90;;;;;;5071749;28;20516;-75
2022/09/24 04:20:25;;;;;;;0.50;0.40;;;13.50;99.90;;;;;;5071708;28;20428;-75
2022/09/24 04:22:53;;;;;;;0.50;0.40;;;13.50;99.90;;;;;;5071849;28;20466;-75
2022/09/24 04:25:21;;;;;;;0.50;0.40;;;13.40;99.90;;;;;;5071597;28;20428;-75
2022/09/24 04:27:53;;;;;;;0.50;0.40;;;13.40;99.90;;;;;;5071876;28;20435;-75
2022/09/24 04:30:20;;;;;;;0.50;0.40;;;13.40;99.90;;;;;;5071709;28;20518;-76
2022/09/24 04:32:50;;;;;;;0.50;0.50;;;13.40;99.90;;;;;;5071608;28;20476;-75
2022/09/24 04:35:17;;;;;;;0.50;0.40;;;13.40;99.90;;;;;;5071124;28;20505;-75
2022/09/24 04:37:45;;;;;;;1.73;1.63;;;13.40;99.90;;;;;;5071492;28;20450;-74
2022/09/24 04:40:12;;;;;;;0.50;0.40;;;13.40;99.90;;;;;;5071723;28;20494;-75
2022/09/24 04:42:39;;;;;;;0.50;0.40;;;13.40;99.90;;;;;;5071300;28;20441;-75
2022/09/24 04:45:08;;;;;;;0.50;0.40;;;13.40;99.90;;;;;;5071282;28;20441;-75
2022/09/24 04:47:35;;;;;;;0.50;0.40;;;13.40;99.90;;;;;;5071211;28;20470;-75
2022/09/24 04:50:05;;;;;;;0.50;0.40;;;13.40;99.90;;;;;;5071528;28;20501;-75
2022/09/24 04:52:32;;;;;;;0.50;0.40;;;13.40;99.90;;;;;;5071284;28;20493;-75
2022/09/24 04:54:59;;;;;;;0.50;0.40;;;13.30;99.90;;;;;;5071104;28;20447;-75
2022/09/24 04:57:27;;;;;;;0.50;0.40;;;13.40;99.90;;;;;;5071179;28;20436;-75
2022/09/24 04:59:55;;;;;;;0.50;0.40;;;13.30;99.90;;;;;;5071298;28;20790;-75
2022/09/24 05:02:22;;;;;;;0.50;0.40;;;13.30;99.90;;;;;;5071189;28;20435;-75
2022/09/24 05:04:49;;;;;;;0.50;0.40;;;13.30;99.90;;;;;;5070928;28;20460;-75
2022/09/24 05:07:17;;;;;;;0.50;0.40;;;13.30;99.90;;;;;;5071158;28;20436;-76
2022/09/24 05:09:44;;;;;;;0.50;0.40;;;13.30;99.90;;;;;;5070497;28;20486;-75
2022/09/24 05:12:12;;;;;;;0.50;0.40;;;13.30;99.90;;;;;;5072122;28;20475;-75
2022/09/24 05:14:39;;;;;;;0.50;0.40;;;13.30;99.90;;;;;;5070949;28;20463;-76
2022/09/24 05:17:05;;;;;;;0.50;0.40;;;13.30;99.90;;;;;;5071119;28;20435;-75
2022/09/24 05:19:32;;;;;;;0.50;0.40;;;13.40;99.90;;;;;;5072474;28;20494;-75
2022/09/24 05:21:59;;;;;;;0.50;0.40;;;13.30;99.90;;;;;;5074656;28;20530;-76
2022/09/24 05:24:27;;;;;;;0.50;0.40;;;13.30;99.90;;;;;;5074755;28;20464;-76
2022/09/24 05:27:09;;;;;;;0.50;0.40;;;13.30;99.90;;;;;;5074861;28;20829;-76
2022/09/24 05:29:36;;;;;;;0.50;0.40;;;13.30;99.90;;;;;;5075584;28;20443;-76
2022/09/24 05:32:05;;;;;;;0.50;0.40;;;13.30;99.90;;;;;;5074662;28;20943;-78
2022/09/24 05:34:32;;;;;;;0.50;0.40;;;13.30;99.90;;;;;;5074521;28;20458;-76
2022/09/24 05:37:00;;;;;;;0.50;0.40;;;13.30;99.90;;;;;;5074902;28;20428;-76
2022/09/24 05:39:28;;;;;;;0.70;0.40;;;13.30;99.90;;;;;;5074643;28;20531;-76
2022/09/24 05:41:55;;;;;;;0.50;0.40;;;13.30;99.90;;;;;;5074867;28;20529;-76
2022/09/24 05:44:22;;;;;;;0.50;0.40;;;13.30;99.90;;;;;;5074289;28;21032;-76
2022/09/24 05:46:49;;;;;;;0.60;0.50;;;13.40;99.90;;;;;;5074500;28;20523;-77
2022/09/24 05:49:16;;;;;;;0.50;0.40;;;13.40;99.90;;;;;;5074567;28;20537;-76
2022/09/24 05:51:43;;;;;;;1.20;1.10;;;13.40;99.90;;;;;;5074534;28;20469;-77
2022/09/24 05:54:10;;;;;;;0.50;0.40;;;13.40;99.90;;;;;;5074350;28;20456;-76
2022/09/24 05:56:38;;;;;;;0.73;0.70;;;13.40;99.90;;;;;;5074857;28;20442;-75
2022/09/24 05:59:05;;;;;;;0.50;0.40;;;13.50;99.90;;;;;;5074592;28;20476;-76
2022/09/24 06:01:32;;;;;;;0.50;0.40;;;13.50;99.90;;;;;;5074374;28;20448;-76
2022/09/24 06:03:59;;;;;;;1.37;1.27;;;13.60;99.90;;;;;;5074328;28;20462;-77
2022/09/24 06:06:27;;;;;;;1.73;1.50;;;13.60;99.90;;;;;;5074592;28;20442;-77
2022/09/24 06:08:55;;;;;;;0.50;0.40;;;13.60;99.90;;;;;;5074144;28;21016;-77
2022/09/24 06:11:22;;;;;;;0.80;0.80;;;13.70;99.90;;;;;;5074123;28;20440;-77
2022/09/24 06:13:50;;;;;;;0.50;0.40;;;13.70;99.90;;;;;;5073996;28;20495;-78
2022/09/24 06:16:18;;;;;;;0.50;0.40;;;13.70;99.90;;;;;;5074316;28;20839;-77
2022/09/24 06:18:45;;;;;;;0.50;0.40;;;13.80;99.90;;;;;;5073905;28;20442;-77
2022/09/24 06:21:13;;;;;;;0.50;0.40;;;13.80;99.90;;;;;;5074054;28;20436;-77
2022/09/24 06:23:41;;;;;;;0.50;0.40;;;13.90;99.90;;;;;;5073441;28;20468;-77
2022/09/24 06:26:11;;;;;;;0.50;0.40;;;13.90;99.90;;;;;;5073782;28;20484;-77
2022/09/24 06:28:38;;;;;;;0.50;0.40;;;13.90;99.90;;;;;;5074899;28;20474;-77
2022/09/24 06:31:08;;;;;;;0.50;0.40;;;13.90;99.90;;;;;;5073525;28;20440;-78
2022/09/24 06:33:36;;;;;;;1.27;1.17;;;13.90;99.90;;;;;;5073343;28;20483;-74
2022/09/24 06:36:04;;;;;;;0.50;0.40;;;13.90;99.90;;;;;;5073729;28;20452;-78
2022/09/24 06:38:32;;;;;;;0.50;0.50;;;14.00;99.90;;;;;;5073945;28;20471;-78
2022/09/24 06:41:00;;;;;;;0.80;0.70;;;14.10;99.90;;;;;;5073778;28;20446;-78
2022/09/24 06:43:27;;;;;;;0.53;0.47;;;14.10;99.90;;;;;;5073112;28;20483;-77
2022/09/24 06:45:58;;;;;;;0.50;0.40;;;14.20;99.90;;;;;;5073426;28;20443;-77
2022/09/24 06:48:27;;;;;;;0.50;0.40;;;14.20;99.90;;;;;;5073495;28;20885;-78
2022/09/24 06:50:55;;;;;;;0.50;0.40;;;14.30;99.90;;;;;;5073872;28;21045;-78
2022/09/24 06:53:22;;;;;;;0.50;0.40;;;14.30;99.90;;;;;;5073347;28;20483;-77
2022/09/24 06:55:49;;;;;;;1.07;1.07;;;14.40;99.90;;;;;;5073074;28;20494;-78
2022/09/24 06:58:18;;;;;;;1.27;1.17;;;14.50;99.90;;;;;;5074293;28;20443;-78
2022/09/24 07:00:52;;;;;;;0.60;0.60;;;14.60;99.90;;;;;;5074319;28;20443;-75
2022/09/24 07:03:20;;;;;;;0.60;0.40;;;14.70;99.90;;;;;;5073178;28;20973;-78
2022/09/24 07:05:48;;;;;;;0.50;0.40;;;14.70;99.90;;;;;;5073040;28;20442;-78
2022/09/24 07:08:15;;;;;;;2.00;1.90;;;14.70;99.90;;;;;;5073191;28;20527;-78
2022/09/24 07:10:43;;;;;;;0.73;0.73;;;14.80;99.90;;;;;;5073313;28;20865;-78
2022/09/24 07:13:11;;;;;;;1.23;1.23;;;14.90;99.90;;;;;;5073205;28;20555;-78
2022/09/24 07:15:38;;;;;;;0.50;0.40;;;14.90;99.90;;;;;;5072624;28;20959;-75
2022/09/24 07:18:05;;;;;;;0.50;0.40;;;15.00;99.90;;;;;;5073245;28;20530;-77
2022/09/24 07:20:34;;;;;;;0.50;0.40;;;15.10;99.90;;;;;;5073945;28;20527;-77
2022/09/24 07:23:03;;;;;;;1.47;0.93;;;15.20;99.90;;;;;;5072730;28;20468;-77
2022/09/24 07:25:30;;;;;;;1.33;1.33;;;15.20;99.90;;;;;;5072698;28;20440;-77
2022/09/24 07:28:01;;;;;;;0.50;0.40;;;15.20;99.90;;;;;;5072939;28;20520;-77
2022/09/24 07:30:28;;;;;;;0.60;0.60;;;15.30;99.90;;;;;;5072886;28;20417;-78
2022/09/24 07:32:55;;;;;;;0.87;0.80;;;15.30;99.90;;;;;;5072420;28;20579;-77
2022/09/24 07:35:22;;;;;;;1.77;1.20;;;15.20;99.90;;;;;;5072672;28;20523;-77
2022/09/24 07:37:56;;;;;;;0.50;0.40;;;15.30;99.90;;;;;;5072407;28;20535;-77
2022/09/24 07:40:25;;;;;;;0.50;0.30;;;15.30;99.90;;;;;;5072797;28;20436;-78
2022/09/24 07:42:53;;;;;;;1.70;1.70;;;15.40;99.90;;;;;;5072130;28;20432;-77
2022/09/24 07:45:20;;;;;;;0.50;0.40;;;15.40;99.90;;;;;;5071833;28;20498;-77
2022/09/24 07:47:47;;;;;;;1.50;1.40;;;15.50;99.90;;;;;;5072253;28;20523;-77
2022/09/24 07:50:14;;;;;;;0.90;0.70;;;15.60;99.90;;;;;;5072764;28;20436;-77
2022/09/24 07:52:40;;;;;;;0.50;0.40;;;15.70;99.90;;;;;;5071961;28;20914;-77
2022/09/24 07:55:08;;;;;;;0.83;0.80;;;15.60;99.90;;;;;;5072157;28;20859;-77
2022/09/24 07:57:38;;;;;;;0.50;0.30;;;15.60;99.90;;;;;;5071650;28;20531;-77
2022/09/24 08:00:06;;;;;;;0.50;0.40;;;15.70;99.90;;;;;;5072508;28;20451;-77
2022/09/24 08:02:32;;;;;;;0.50;0.40;;;15.70;99.90;;;;;;5072198;28;20432;-78
2022/09/24 08:05:01;;;;;;;0.70;0.63;;;15.80;99.90;;;;;;5071974;28;20524;-77
2022/09/24 08:07:28;;;;;;;0.70;0.67;;;15.90;99.90;;;;;;5071706;28;20969;-77
2022/09/24 08:09:54;;;;;;;0.50;0.40;;;15.90;99.90;;;;;;5072109;28;20615;-77
2022/09/24 08:12:24;;;;;;;0.50;0.40;;;15.90;99.90;;;;;;5071952;28;20953;-77
2022/09/24 08:14:52;;;;;;;0.50;0.40;;;16.00;99.90;;;;;;5071633;28;20535;-77
2022/09/24 08:17:19;;;;;;;1.60;1.50;;;16.00;99.90;;;;;;5071804;28;20868;-77
2022/09/24 08:19:46;;;;;;;0.73;0.73;;;16.00;99.90;;;;;;5072039;28;20436;-75
2022/09/24 08:22:14;;;;;;;1.57;1.13;;;16.10;99.90;;;;;;5071705;28;20970;-77
2022/09/24 08:24:41;;;;;;;0.80;0.70;;;16.20;99.90;;;;;;5071277;28;20464;-77
2022/09/24 08:27:08;;;;;;;0.70;0.50;;;16.30;99.90;;;;;;5071362;28;20447;-78
2022/09/24 08:29:35;;;;;;;1.07;1.03;;;16.40;99.90;;;;;;5071651;28;20523;-77
2022/09/24 08:32:04;;;;;;;1.17;1.17;;;16.60;99.90;;;;;;5071688;28;20436;-77
2022/09/24 08:34:37;;;;;;;4.13;1.93;;;16.90;99.90;;;;;;5070784;28;20563;-77
2022/09/24 08:37:04;;;;;;;1.03;1.03;;;17.00;99.90;;;;;;5072098;28;20460;-77
2022/09/24 08:39:31;;;;;;;0.80;0.80;;;17.40;99.90;;;;;;5071598;28;20440;-76
2022/09/24 08:42:03;;;;;;;0.50;0.40;;;17.70;99.90;;;;;;5071376;28;20440;-76
2022/09/24 08:47:33;;;;;;;2.97;2.23;;;18.30;99.90;;;;;;5071309;28;20412;-77
2022/09/24 08:50:11;;;;;;;2.70;2.50;;;18.20;99.90;;;;;;5071699;28;20790;-78
2022/09/24 08:52:56;;;;;;;1.47;1.43;;;18.10;99.90;;;;;;5071236;28;21016;-78
2022/09/24 08:55:31;;;;;;;3.67;3.23;;;18.10;99.90;;;;;;5070062;28;20507;-77
2022/09/24 08:58:06;;;;;;;2.63;1.60;;;18.20;99.90;;;;;;5071360;28;20522;-78
2022/09/24 09:00:40;;;;;;;0.80;0.57;;;18.30;99.90;;;;;;5071456;28;20541;-78
2022/09/24 09:03:18;;;;;;;2.80;2.60;;;18.60;99.90;;;;;;5071028;28;20574;-78
2022/09/24 09:05:53;;;;;;;0.50;0.40;;;19.30;99.90;;;;;;5070804;28;20602;-77
2022/09/24 09:08:29;;;;;;;0.50;0.40;;;19.90;99.90;;;;;;5072656;28;20530;-79
2022/09/24 09:11:01;;;;;;;2.67;2.47;;;20.90;99.90;;;;;;5072023;28;20506;-77
2022/09/24 09:13:32;;;;;;;8.03;2.37;;;21.60;99.90;;;;;;5071167;28;20476;-77
2022/09/24 09:16:06;;;;;;;0.70;0.60;;;21.70;99.90;;;;;;5071104;28;20519;-78
2022/09/24 09:18:38;;;;;;;0.50;0.40;;;21.90;99.90;;;;;;5070743;28;20428;-77
2022/09/24 09:21:15;;;;;;;2.00;1.90;;;22.30;99.90;;;;;;5071585;28;20455;-77
2022/09/24 09:23:48;;;;;;;0.50;0.30;;;22.60;99.90;;;;;;5070895;28;20529;-77
2022/09/24 09:26:17;;;;;;;2.23;1.80;;;22.40;99.90;;;;;;5071324;28;20434;-76
2022/09/24 09:28:45;;;;;;;3.90;2.63;;;22.10;99.90;;;;;;5071575;28;20448;-74
2022/09/24 09:31:23;;;;;;;2.77;2.10;;;21.00;99.90;;;;;;5072220;28;20440;-77
2022/09/24 09:34:04;;;;;;;0.50;0.30;;;20.20;99.90;;;;;;5072212;28;20574;-75
2022/09/24 09:36:44;;;;;;;0.50;0.37;;;20.00;99.90;;;;;;5071867;28;20528;-79
2022/09/24 09:39:30;;;;;;;0.70;0.47;;;20.20;99.90;;;;;;5071508;28;20420;-76
2022/09/24 09:42:02;;;;;;;0.97;0.80;;;20.40;99.90;;;;;;5072023;28;20519;-77
2022/09/24 09:44:31;;;;;;;0.57;0.47;;;20.30;99.90;;;;;;5071128;28;20463;-76
2022/09/24 09:47:06;;;;;;;0.50;0.40;;;20.30;99.90;;;;;;5070993;28;20540;-76
2022/09/24 09:49:38;;;;;;;1.10;1.10;;;20.30;99.90;;;;;;5071397;28;20431;-77
2022/09/24 09:52:13;;;;;;;6.53;2.40;;;20.20;99.90;;;;;;5071813;28;20444;-76
2022/09/24 09:54:42;;;;;;;1.90;1.33;;;19.90;99.90;;;;;;5070767;28;20989;-74
2022/09/24 09:57:14;;;;;;;0.70;0.50;;;19.50;99.90;;;;;;5071115;28;20452;-77
2022/09/24 09:59:41;;;;;;;0.50;0.30;;;19.40;99.90;;;;;;5071385;28;20505;-77
2022/09/24 10:02:12;;;;;;;0.50;0.43;;;19.40;99.90;;;;;;5071121;28;20523;-77
2022/09/24 10:04:41;;;;;;;1.10;1.00;;;19.30;99.90;;;;;;5070441;28;21015;-73
2022/09/24 10:07:10;;;;;;;0.50;0.40;;;19.30;99.90;;;;;;5074629;28;20490;-76
2022/09/24 10:09:38;;;;;;;2.40;1.27;;;19.30;99.90;;;;;;5074518;28;20436;-76
2022/09/24 10:12:16;;;;;;;0.50;0.40;;;19.40;99.90;;;;;;5073909;28;20531;-76
2022/09/24 10:14:43;;;;;;;0.60;0.50;;;19.70;99.90;;;;;;5074468;28;20480;-79
2022/09/24 10:17:16;;;;;;;0.50;0.30;;;19.90;99.90;;;;;;5074463;28;20467;-76
2022/09/24 10:19:46;;;;;;;0.50;0.30;;;20.00;99.90;;;;;;5074119;28;20519;-77
2022/09/24 10:22:20;;;;;;;0.80;0.70;;;20.10;99.90;;;;;;5074022;28;20809;-76
2022/09/24 10:24:47;;;;;;;0.50;0.40;;;20.10;99.90;;;;;;5073382;28;20464;-77
2022/09/24 10:27:21;;;;;;;8.90;2.10;;;19.90;99.90;;;;;;5074041;28;20515;-76
2022/09/24 10:32:36;;;;;;;0.50;0.50;;;19.80;99.90;;;;;;5073692;28;20396;-74
2022/09/24 10:35:20;;;;;;;1.47;0.90;;;19.80;99.90;;;;;;5073662;28;20591;-77
2022/09/24 10:37:51;;;;;;;0.50;0.33;;;19.60;99.90;;;;;;5073967;28;20446;-77
2022/09/24 10:40:22;;;;;;;1.47;0.60;;;19.50;99.90;;;;;;5074184;28;20439;-78
2022/09/24 10:42:55;;;;;;;1.37;1.27;;;19.40;99.90;;;;;;5073871;28;20944;-77
2022/09/24 10:45:28;;;;;;;0.87;0.80;;;19.30;99.90;;;;;;5073929;28;20790;-78
2022/09/24 10:48:02;;;;;;;0.50;0.40;;;19.30;99.90;;;;;;5073536;28;20519;-77
2022/09/24 10:50:35;;;;;;;1.73;1.43;;;19.30;99.90;;;;;;5073845;28;20519;-77
2022/09/24 10:53:08;;;;;;;1.33;1.00;;;19.20;99.90;;;;;;5073657;28;20535;-77
2022/09/24 10:55:48;;;;;;;1.07;1.07;;;19.00;99.90;;;;;;5073114;28;20836;-77
2022/09/24 10:58:34;;;;;;;0.60;0.47;;;19.10;99.90;;;;;;5073324;28;20531;-76
2022/09/24 11:01:12;;;;;;;2.20;2.00;;;19.10;99.90;;;;;;5073458;28;20950;-76
2022/09/24 11:03:54;;;;;;;0.60;0.50;;;19.10;99.90;;;;;;5073162;28;20488;-74
2022/09/24 11:06:36;;;;;;;0.50;0.40;;;19.20;99.90;;;;;;5073554;28;20444;-76
2022/09/24 11:09:14;;;;;;;0.50;0.30;;;19.10;99.90;;;;;;5072860;28;20435;-76
2022/09/24 11:11:55;;;;;;;0.50;0.40;;;19.30;99.90;;;;;;5072736;28;20527;-76
2022/09/24 11:14:45;;;;;;;1.13;1.07;;;19.50;99.90;;;;;;5073599;28;20487;-76
2022/09/24 11:17:36;;;;;;;0.50;0.30;;;19.60;99.90;;;;;;5072356;28;20425;-76
2022/09/24 11:20:15;;;;;;;0.50;0.30;;;19.80;99.90;;;;;;5073238;28;20503;-76
2022/09/24 11:23:06;;;;;;;5.13;2.20;;;19.70;99.90;;;;;;5072552;28;20482;-76
2022/09/24 11:25:43;;;;;;;1.30;1.20;;;19.70;99.90;;;;;;5072470;28;20474;-76
2022/09/24 11:28:26;;;;;;;0.50;0.40;;;19.70;99.90;;;;;;5072818;28;20855;-76
2022/09/24 11:31:03;;;;;;;0.50;0.30;;;19.70;99.90;;;;;;5072322;28;21137;-75
2022/09/24 11:33:45;;;;;;;0.50;0.30;;;19.50;99.90;;;;;;5072320;28;21000;-76
2022/09/24 11:36:37;;;;;;;0.50;0.33;;;19.60;99.90;;;;;;5072408;28;20436;-76
2022/09/24 11:39:33;;;;;;;0.80;0.80;;;19.70;99.90;;;;;;5072387;28;20431;-76
2022/09/24 11:42:19;;;;;;;0.50;0.40;;;19.70;99.90;;;;;;5072892;28;20519;-76
2022/09/24 11:45:15;;;;;;;1.70;1.60;;;19.50;99.90;;;;;;5072286;28;20471;-76
2022/09/24 11:47:59;;;;;;;0.50;0.40;;;19.50;99.90;;;;;;5069289;28;20456;-75
2022/09/24 11:50:40;;;;;;;0.90;0.90;;;19.30;99.90;;;;;;5072349;28;20914;-76
2022/09/24 11:53:14;;;;;;;0.50;0.40;;;19.10;99.90;;;;;;5072739;28;20547;-76
2022/09/24 11:55:52;;;;;;;1.00;0.73;;;19.10;99.90;;;;;;5071639;28;20526;-73
2022/09/24 11:58:24;;;;;;;0.50;0.33;;;19.20;99.90;;;;;;5072655;28;20432;-76
2022/09/24 12:00:56;;;;;;;1.23;1.13;;;19.30;99.90;;;;;;5071949;28;20440;-76
2022/09/24 12:03:28;;;;;;;0.50;0.30;;;19.70;99.90;;;;;;5072254;28;20525;-76
2022/09/24 12:06:02;;;;;;;0.60;0.50;;;19.90;99.90;;;;;;5071360;28;20910;-75
2022/09/24 12:08:36;;;;;;;0.50;0.40;;;20.10;99.90;;;;;;5072464;28;20523;-76
2022/09/24 12:11:13;;;;;;;5.03;1.27;;;20.10;99.90;;;;;;5071994;28;20909;-74
2022/09/24 12:13:42;;;;;;;0.50;0.30;;;19.90;99.90;;;;;;5071724;28;20502;-75
2022/09/24 12:16:14;;;;;;;0.50;0.30;;;19.80;99.90;;;;;;5071533;28;20527;-76
2022/09/24 12:18:49;;;;;;;0.50;0.30;;;19.60;99.90;;;;;;5071918;28;20534;-75
2022/09/24 12:21:21;;;;;;;0.50;0.50;;;19.50;99.90;;;;;;5072152;28;20447;-73
2022/09/24 12:23:50;;;;;;;0.50;0.40;;;19.50;99.90;;;;;;5071698;28;20507;-75
2022/09/24 12:26:20;;;;;;;0.50;0.37;;;19.40;99.90;;;;;;5071354;28;20955;-76
2022/09/24 12:34:39;;;;;;;0.50;0.30;;;18.60;99.90;;;;;;5071122;28;20521;-75
2022/09/24 12:37:10;;;;;;;0.50;0.33;;;18.30;99.90;;;;;;5071249;28;20852;-75
2022/09/24 12:39:45;;;;;;;0.50;0.40;;;18.20;99.90;;;;;;5071904;28;20528;-75
2022/09/24 12:42:14;;;;;;;1.43;1.33;;;18.00;99.90;;;;;;5071699;28;20507;-76
2022/09/24 12:44:45;;;;;;;0.50;0.40;;;18.00;99.90;;;;;;5071309;28;20871;-75
2022/09/24 12:47:18;;;;;;;0.50;0.40;;;17.90;99.90;;;;;;5071171;28;20471;-75
2022/09/24 12:49:51;;;;;;;0.50;0.30;;;17.90;99.90;;;;;;5071071;28;20467;-75
2022/09/24 12:52:23;;;;;;;0.50;0.30;;;17.90;99.90;;;;;;5071533;28;20786;-75
2022/09/24 12:54:58;;;;;;;0.50;0.40;;;18.00;99.90;;;;;;5070939;28;20567;-75
2022/09/24 12:57:30;;;;;;;0.50;0.40;;;18.10;99.90;;;;;;5071174;28;20442;-76
2022/09/24 12:59:59;;;;;;;0.50;0.30;;;18.20;99.90;;;;;;5071273;28;20431;-75
2022/09/24 13:02:28;;;;;;;0.50;0.30;;;18.30;99.90;;;;;;5071236;28;20937;-76
2022/09/24 13:05:17;;;;;;;0.50;0.40;;;18.40;99.90;;;;;;5070358;28;20615;-75
2022/09/24 13:07:54;;;;;;;0.50;0.30;;;18.60;99.90;;;;;;5071359;28;20425;-72
2022/09/24 13:10:24;;;;;;;0.50;0.30;;;18.80;99.90;;;;;;5071110;28;20522;-76
2022/09/24 13:12:53;;;;;;;0.50;0.30;;;18.80;99.90;;;;;;5071190;28;20527;-75
2022/09/24 13:15:32;;;;;;;0.50;0.30;;;18.80;99.90;;;;;;5070725;28;20559;-75
2022/09/24 13:18:20;;;;;;;2.30;2.10;;;18.80;99.90;;;;;;5070811;28;20512;-75
2022/09/24 13:20:59;;;;;;;0.60;0.50;;;18.80;99.90;;;;;;5071210;28;20440;-75